sensor_id;sensor_type;location;lat;lon;timestamp;P1;durP1;ratioP1;P2;durP2;ratioP2
48777;SDS011;34578;0.000;0.000;2022-07-18T00:00:44;1.17;;;1.07;;
48777;SDS011;34578;0.000;0.000;2022-07-18T00:05:44;2.03;;;1.37;;
48777;SDS011;34578;0.000;0.000;2022-07-18T00:10:45;2.43;;;0.90;;
48777;SDS011;34578;0.000;0.000;2022-07-18T00:15:45;1.20;;;0.83;;
48777;SDS011;34578;0.000;0.000;2022-07-18T00:20:45;0.80;;;0.80;;
48777;SDS011;34578;0.000;0.000;2022-07-18T00:25:46;0.70;;;0.70;;
48777;SDS011;34578;0.000;0.000;2022-07-18T00:30:46;1.03;;;0.90;;
48777;SDS011;34578;0.000;0.000;2022-07-18T00:35:47;0.70;;;0.70;;
48777;SDS011;34578;0.000;0.000;2022-07-18T00:40:47;1.25;;;0.80;;
48777;SDS011;34578;0.000;0.000;2022-07-18T00:45:48;1.73;;;1.60;;
48777;SDS011;34578;0.000;0.000;2022-07-18T00:50:49;1.42;;;1.33;;
48777;SDS011;34578;0.000;0.000;2022-07-18T00:55:50;0.95;;;0.90;;
48777;SDS011;34578;0.000;0.000;2022-07-18T01:00:52;0.88;;;0.88;;
48777;SDS011;34578;0.000;0.000;2022-07-18T01:06:11;1.58;;;1.00;;
48777;SDS011;34578;0.000;0.000;2022-07-18T01:11:11;1.10;;;0.70;;
48777;SDS011;34578;0.000;0.000;2022-07-18T01:16:14;0.70;;;0.70;;
48777;SDS011;34578;0.000;0.000;2022-07-18T01:21:16;0.80;;;0.80;;
48777;SDS011;34578;0.000;0.000;2022-07-18T01:26:17;2.25;;;2.05;;
48777;SDS011;34578;0.000;0.000;2022-07-18T01:31:17;2.63;;;2.03;;
48777;SDS011;34578;0.000;0.000;2022-07-18T01:36:18;1.10;;;1.00;;
48777;SDS011;34578;0.000;0.000;2022-07-18T01:41:18;1.03;;;0.93;;
48777;SDS011;34578;0.000;0.000;2022-07-18T01:46:18;0.60;;;0.60;;
48777;SDS011;34578;0.000;0.000;2022-07-18T01:51:19;1.00;;;0.90;;
48777;SDS011;34578;0.000;0.000;2022-07-18T01:56:19;0.88;;;0.88;;
48777;SDS011;34578;0.000;0.000;2022-07-18T02:01:20;1.37;;;1.00;;
48777;SDS011;34578;0.000;0.000;2022-07-18T02:06:20;1.13;;;1.03;;
48777;SDS011;34578;0.000;0.000;2022-07-18T02:11:21;1.63;;;1.40;;
48777;SDS011;34578;0.000;0.000;2022-07-18T02:16:21;2.47;;;1.75;;
48777;SDS011;34578;0.000;0.000;2022-07-18T02:21:22;1.52;;;1.00;;
48777;SDS011;34578;0.000;0.000;2022-07-18T02:26:22;0.73;;;0.73;;
48777;SDS011;34578;0.000;0.000;2022-07-18T02:31:22;0.60;;;0.60;;
48777;SDS011;34578;0.000;0.000;2022-07-18T02:36:23;0.75;;;0.75;;
48777;SDS011;34578;0.000;0.000;2022-07-18T02:41:23;1.47;;;0.93;;
48777;SDS011;34578;0.000;0.000;2022-07-18T02:46:24;1.10;;;1.00;;
48777;SDS011;34578;0.000;0.000;2022-07-18T02:51:24;1.67;;;1.58;;
48777;SDS011;34578;0.000;0.000;2022-07-18T02:56:25;2.75;;;1.98;;
48777;SDS011;34578;0.000;0.000;2022-07-18T03:01:25;1.13;;;1.03;;
48777;SDS011;34578;0.000;0.000;2022-07-18T03:06:26;0.80;;;0.80;;
48777;SDS011;34578;0.000;0.000;2022-07-18T03:11:26;0.87;;;0.87;;
48777;SDS011;34578;0.000;0.000;2022-07-18T03:16:27;0.70;;;0.70;;
48777;SDS011;34578;0.000;0.000;2022-07-18T03:21:27;1.00;;;0.70;;
48777;SDS011;34578;0.000;0.000;2022-07-18T03:26:29;1.48;;;0.82;;
48777;SDS011;34578;0.000;0.000;2022-07-18T03:31:29;0.90;;;0.80;;
48777;SDS011;34578;0.000;0.000;2022-07-18T03:36:29;1.87;;;1.73;;
48777;SDS011;34578;0.000;0.000;2022-07-18T03:41:30;7.25;;;1.55;;
48777;SDS011;34578;0.000;0.000;2022-07-18T03:46:30;2.13;;;1.47;;
48777;SDS011;34578;0.000;0.000;2022-07-18T03:51:32;3.00;;;1.58;;
48777;SDS011;34578;0.000;0.000;2022-07-18T03:56:32;2.63;;;1.60;;
48777;SDS011;34578;0.000;0.000;2022-07-18T04:01:32;2.00;;;1.90;;
48777;SDS011;34578;0.000;0.000;2022-07-18T04:06:33;2.08;;;1.85;;
48777;SDS011;34578;0.000;0.000;2022-07-18T04:11:33;1.63;;;1.50;;
48777;SDS011;34578;0.000;0.000;2022-07-18T04:16:33;3.03;;;1.30;;
48777;SDS011;34578;0.000;0.000;2022-07-18T04:21:34;2.63;;;1.83;;
48777;SDS011;34578;0.000;0.000;2022-07-18T04:26:34;2.80;;;1.37;;
48777;SDS011;34578;0.000;0.000;2022-07-18T04:31:35;2.33;;;1.83;;
48777;SDS011;34578;0.000;0.000;2022-07-18T04:36:35;2.47;;;1.97;;
48777;SDS011;34578;0.000;0.000;2022-07-18T04:41:35;5.10;;;1.70;;
48777;SDS011;34578;0.000;0.000;2022-07-18T04:46:36;1.93;;;1.40;;
48777;SDS011;34578;0.000;0.000;2022-07-18T04:51:36;2.88;;;1.45;;
48777;SDS011;34578;0.000;0.000;2022-07-18T04:56:36;3.17;;;1.77;;
48777;SDS011;34578;0.000;0.000;2022-07-18T05:01:37;10.30;;;2.73;;
48777;SDS011;34578;0.000;0.000;2022-07-18T05:06:37;2.30;;;2.03;;
48777;SDS011;34578;0.000;0.000;2022-07-18T05:11:38;2.33;;;1.70;;
48777;SDS011;34578;0.000;0.000;2022-07-18T05:16:39;5.10;;;1.80;;
48777;SDS011;34578;0.000;0.000;2022-07-18T05:21:39;5.30;;;1.97;;
48777;SDS011;34578;0.000;0.000;2022-07-18T05:26:40;4.50;;;1.80;;
48777;SDS011;34578;0.000;0.000;2022-07-18T05:31:40;2.80;;;1.60;;
48777;SDS011;34578;0.000;0.000;2022-07-18T05:36:41;3.75;;;1.80;;
48777;SDS011;34578;0.000;0.000;2022-07-18T05:41:41;3.80;;;1.87;;
48777;SDS011;34578;0.000;0.000;2022-07-18T05:46:42;5.90;;;2.00;;
48777;SDS011;34578;0.000;0.000;2022-07-18T05:51:42;2.83;;;1.60;;
48777;SDS011;34578;0.000;0.000;2022-07-18T05:56:42;1.40;;;1.30;;
48777;SDS011;34578;0.000;0.000;2022-07-18T06:01:43;3.20;;;1.57;;
48777;SDS011;34578;0.000;0.000;2022-07-18T06:06:43;3.23;;;1.70;;
48777;SDS011;34578;0.000;0.000;2022-07-18T06:11:44;4.68;;;1.77;;
48777;SDS011;34578;0.000;0.000;2022-07-18T06:16:45;3.20;;;1.87;;
48777;SDS011;34578;0.000;0.000;2022-07-18T06:21:45;4.70;;;1.80;;
48777;SDS011;34578;0.000;0.000;2022-07-18T06:26:46;3.45;;;1.88;;
48777;SDS011;34578;0.000;0.000;2022-07-18T06:31:46;2.20;;;1.52;;
48777;SDS011;34578;0.000;0.000;2022-07-18T06:36:47;3.33;;;1.80;;
48777;SDS011;34578;0.000;0.000;2022-07-18T06:41:47;2.70;;;1.20;;
48777;SDS011;34578;0.000;0.000;2022-07-18T06:46:47;2.43;;;1.50;;
48777;SDS011;34578;0.000;0.000;2022-07-18T06:51:48;4.30;;;1.97;;
48777;SDS011;34578;0.000;0.000;2022-07-18T06:56:48;2.27;;;1.23;;
48777;SDS011;34578;0.000;0.000;2022-07-18T07:01:48;2.07;;;1.40;;
48777;SDS011;34578;0.000;0.000;2022-07-18T07:06:49;2.20;;;1.60;;
48777;SDS011;34578;0.000;0.000;2022-07-18T07:11:49;3.03;;;1.60;;
48777;SDS011;34578;0.000;0.000;2022-07-18T07:16:49;2.17;;;1.80;;
48777;SDS011;34578;0.000;0.000;2022-07-18T07:21:51;2.42;;;1.58;;
48777;SDS011;34578;0.000;0.000;2022-07-18T07:26:51;1.30;;;1.20;;
48777;SDS011;34578;0.000;0.000;2022-07-18T07:31:52;2.30;;;2.10;;
48777;SDS011;34578;0.000;0.000;2022-07-18T07:36:52;2.03;;;1.60;;
48777;SDS011;34578;0.000;0.000;2022-07-18T07:41:52;1.47;;;1.20;;
48777;SDS011;34578;0.000;0.000;2022-07-18T07:46:53;1.60;;;1.50;;
48777;SDS011;34578;0.000;0.000;2022-07-18T07:51:53;2.23;;;1.40;;
48777;SDS011;34578;0.000;0.000;2022-07-18T07:56:53;2.63;;;1.60;;
48777;SDS011;34578;0.000;0.000;2022-07-18T08:01:54;1.80;;;1.20;;
48777;SDS011;34578;0.000;0.000;2022-07-18T08:06:55;1.52;;;1.40;;
48777;SDS011;34578;0.000;0.000;2022-07-18T08:11:55;1.20;;;1.10;;
48777;SDS011;34578;0.000;0.000;2022-07-18T08:16:56;1.65;;;1.55;;
48777;SDS011;34578;0.000;0.000;2022-07-18T08:21:56;2.60;;;1.63;;
48777;SDS011;34578;0.000;0.000;2022-07-18T08:26:56;1.83;;;1.43;;
48777;SDS011;34578;0.000;0.000;2022-07-18T08:31:57;2.20;;;1.20;;
48777;SDS011;34578;0.000;0.000;2022-07-18T08:36:57;3.27;;;1.70;;
48777;SDS011;34578;0.000;0.000;2022-07-18T08:41:58;1.53;;;1.30;;
48777;SDS011;34578;0.000;0.000;2022-07-18T08:47:01;2.53;;;1.50;;
48777;SDS011;34578;0.000;0.000;2022-07-18T08:52:02;1.73;;;1.20;;
48777;SDS011;34578;0.000;0.000;2022-07-18T08:57:04;2.00;;;1.20;;
48777;SDS011;34578;0.000;0.000;2022-07-18T09:02:05;1.50;;;1.23;;
48777;SDS011;34578;0.000;0.000;2022-07-18T09:07:07;1.58;;;1.10;;
48777;SDS011;34578;0.000;0.000;2022-07-18T09:12:09;1.50;;;1.40;;
48777;SDS011;34578;0.000;0.000;2022-07-18T09:22:17;2.20;;;1.60;;
48777;SDS011;34578;0.000;0.000;2022-07-18T09:32:38;1.45;;;1.25;;
48777;SDS011;34578;0.000;0.000;2022-07-18T09:37:51;1.55;;;1.42;;
48777;SDS011;34578;0.000;0.000;2022-07-18T09:42:57;1.58;;;1.38;;
48777;SDS011;34578;0.000;0.000;2022-07-18T09:48:03;1.48;;;1.33;;
48777;SDS011;34578;0.000;0.000;2022-07-18T09:58:17;1.50;;;1.40;;
48777;SDS011;34578;0.000;0.000;2022-07-18T10:03:28;2.03;;;1.20;;
48777;SDS011;34578;0.000;0.000;2022-07-18T10:08:29;1.42;;;1.33;;
48777;SDS011;34578;0.000;0.000;2022-07-18T10:13:32;1.80;;;1.40;;
48777;SDS011;34578;0.000;0.000;2022-07-18T10:18:34;1.20;;;1.10;;
48777;SDS011;34578;0.000;0.000;2022-07-18T10:23:40;1.20;;;1.02;;
48777;SDS011;34578;0.000;0.000;2022-07-18T10:39:07;4.10;;;1.40;;
48777;SDS011;34578;0.000;0.000;2022-07-18T10:49:29;3.92;;;1.45;;
48777;SDS011;34578;0.000;0.000;2022-07-18T11:15:58;31.85;;;15.77;;
48777;SDS011;34578;0.000;0.000;2022-07-18T11:21:16;57.88;;;26.83;;
48777;SDS011;34578;0.000;0.000;2022-07-18T11:26:23;84.03;;;40.28;;
48777;SDS011;34578;0.000;0.000;2022-07-18T11:31:24;84.45;;;41.58;;
48777;SDS011;34578;0.000;0.000;2022-07-18T11:36:28;66.72;;;28.05;;
48777;SDS011;34578;0.000;0.000;2022-07-18T11:41:30;33.47;;;18.17;;
48777;SDS011;34578;0.000;0.000;2022-07-18T11:46:30;62.15;;;32.60;;
48777;SDS011;34578;0.000;0.000;2022-07-18T11:51:35;48.67;;;26.03;;
48777;SDS011;34578;0.000;0.000;2022-07-18T11:56:49;22.58;;;12.18;;
48777;SDS011;34578;0.000;0.000;2022-07-18T12:01:51;43.22;;;23.27;;
48777;SDS011;34578;0.000;0.000;2022-07-18T12:07:18;59.47;;;16.25;;
48777;SDS011;34578;0.000;0.000;2022-07-18T12:17:23;67.75;;;34.50;;
48777;SDS011;34578;0.000;0.000;2022-07-18T12:22:24;55.45;;;30.90;;
48777;SDS011;34578;0.000;0.000;2022-07-18T12:27:25;63.83;;;29.40;;
48777;SDS011;34578;0.000;0.000;2022-07-18T12:38:05;50.85;;;26.67;;
48777;SDS011;34578;0.000;0.000;2022-07-18T12:43:06;27.05;;;13.23;;
48777;SDS011;34578;0.000;0.000;2022-07-18T12:48:10;46.63;;;22.10;;
48777;SDS011;34578;0.000;0.000;2022-07-18T12:53:12;38.33;;;19.70;;
48777;SDS011;34578;0.000;0.000;2022-07-18T12:58:13;54.65;;;29.05;;
48777;SDS011;34578;0.000;0.000;2022-07-18T13:03:13;56.50;;;28.90;;
48777;SDS011;34578;0.000;0.000;2022-07-18T13:08:14;48.58;;;28.13;;
48777;SDS011;34578;0.000;0.000;2022-07-18T13:13:15;53.60;;;30.92;;
48777;SDS011;34578;0.000;0.000;2022-07-18T13:18:15;34.45;;;18.15;;
48777;SDS011;34578;0.000;0.000;2022-07-18T13:23:16;45.47;;;24.13;;
48777;SDS011;34578;0.000;0.000;2022-07-18T13:28:16;23.00;;;13.10;;
48777;SDS011;34578;0.000;0.000;2022-07-18T13:33:16;26.57;;;15.73;;
48777;SDS011;34578;0.000;0.000;2022-07-18T13:38:17;39.80;;;20.20;;
48777;SDS011;34578;0.000;0.000;2022-07-18T13:43:17;49.23;;;26.27;;
48777;SDS011;34578;0.000;0.000;2022-07-18T13:48:18;52.67;;;29.92;;
48777;SDS011;34578;0.000;0.000;2022-07-18T13:53:19;48.30;;;24.30;;
48777;SDS011;34578;0.000;0.000;2022-07-18T13:58:19;47.67;;;24.70;;
48777;SDS011;34578;0.000;0.000;2022-07-18T14:03:20;54.55;;;31.90;;
48777;SDS011;34578;0.000;0.000;2022-07-18T14:08:20;38.23;;;18.87;;
48777;SDS011;34578;0.000;0.000;2022-07-18T14:13:20;19.57;;;10.30;;
48777;SDS011;34578;0.000;0.000;2022-07-18T14:18:21;29.07;;;14.70;;
48777;SDS011;34578;0.000;0.000;2022-07-18T14:23:21;28.07;;;15.13;;
48777;SDS011;34578;0.000;0.000;2022-07-18T14:28:22;33.55;;;17.73;;
48777;SDS011;34578;0.000;0.000;2022-07-18T14:33:22;42.73;;;25.00;;
48777;SDS011;34578;0.000;0.000;2022-07-18T14:38:23;44.00;;;25.43;;
48777;SDS011;34578;0.000;0.000;2022-07-18T14:43:23;39.83;;;21.80;;
48777;SDS011;34578;0.000;0.000;2022-07-18T14:48:24;43.05;;;24.80;;
48777;SDS011;34578;0.000;0.000;2022-07-18T14:53:24;26.97;;;15.17;;
48777;SDS011;34578;0.000;0.000;2022-07-18T14:58:24;18.60;;;10.32;;
48777;SDS011;34578;0.000;0.000;2022-07-18T15:03:25;23.53;;;14.47;;
48777;SDS011;34578;0.000;0.000;2022-07-18T15:08:25;26.48;;;15.55;;
48777;SDS011;34578;0.000;0.000;2022-07-18T15:13:26;30.33;;;17.27;;
48777;SDS011;34578;0.000;0.000;2022-07-18T15:18:26;40.93;;;23.57;;
48777;SDS011;34578;0.000;0.000;2022-07-18T15:23:26;33.53;;;19.07;;
48777;SDS011;34578;0.000;0.000;2022-07-18T15:28:27;38.43;;;22.70;;
48777;SDS011;34578;0.000;0.000;2022-07-18T15:33:27;38.30;;;23.20;;
48777;SDS011;34578;0.000;0.000;2022-07-18T15:38:28;24.80;;;14.20;;
48777;SDS011;34578;0.000;0.000;2022-07-18T15:43:29;21.77;;;12.40;;
48777;SDS011;34578;0.000;0.000;2022-07-18T15:48:29;22.37;;;14.27;;
48777;SDS011;34578;0.000;0.000;2022-07-18T15:53:29;22.98;;;14.63;;
48777;SDS011;34578;0.000;0.000;2022-07-18T15:58:30;27.50;;;17.10;;
48777;SDS011;34578;0.000;0.000;2022-07-18T16:03:30;35.85;;;21.58;;
48777;SDS011;34578;0.000;0.000;2022-07-18T16:08:31;36.97;;;21.70;;
48777;SDS011;34578;0.000;0.000;2022-07-18T16:13:31;36.17;;;22.17;;
48777;SDS011;34578;0.000;0.000;2022-07-18T16:18:31;29.67;;;17.85;;
48777;SDS011;34578;0.000;0.000;2022-07-18T16:23:32;20.23;;;13.17;;
48777;SDS011;34578;0.000;0.000;2022-07-18T16:28:32;16.73;;;10.50;;
48777;SDS011;34578;0.000;0.000;2022-07-18T16:33:33;19.10;;;12.00;;
48777;SDS011;34578;0.000;0.000;2022-07-18T16:38:33;22.07;;;11.90;;
48777;SDS011;34578;0.000;0.000;2022-07-18T16:43:34;22.77;;;13.65;;
48777;SDS011;34578;0.000;0.000;2022-07-18T16:48:34;25.42;;;16.05;;
48777;SDS011;34578;0.000;0.000;2022-07-18T16:53:35;27.88;;;16.88;;
48777;SDS011;34578;0.000;0.000;2022-07-18T16:58:38;22.95;;;14.98;;
48777;SDS011;34578;0.000;0.000;2022-07-18T17:03:39;13.00;;;9.05;;
48777;SDS011;34578;0.000;0.000;2022-07-18T17:08:39;16.77;;;11.18;;
48777;SDS011;34578;0.000;0.000;2022-07-18T17:13:40;16.77;;;10.77;;
48777;SDS011;34578;0.000;0.000;2022-07-18T17:18:41;15.70;;;9.27;;
48777;SDS011;34578;0.000;0.000;2022-07-18T17:23:42;12.57;;;8.48;;
48777;SDS011;34578;0.000;0.000;2022-07-18T17:28:43;19.00;;;11.13;;
48777;SDS011;34578;0.000;0.000;2022-07-18T17:33:45;20.95;;;10.45;;
48777;SDS011;34578;0.000;0.000;2022-07-18T17:38:47;28.23;;;14.00;;
48777;SDS011;34578;0.000;0.000;2022-07-18T17:43:48;19.33;;;10.00;;
48777;SDS011;34578;0.000;0.000;2022-07-18T17:48:49;18.90;;;10.40;;
48777;SDS011;34578;0.000;0.000;2022-07-18T17:53:50;20.85;;;14.85;;
48777;SDS011;34578;0.000;0.000;2022-07-18T17:58:51;17.58;;;11.30;;
48777;SDS011;34578;0.000;0.000;2022-07-18T18:03:51;19.77;;;10.93;;
48777;SDS011;34578;0.000;0.000;2022-07-18T18:08:54;15.05;;;9.40;;
48777;SDS011;34578;0.000;0.000;2022-07-18T18:13:54;20.53;;;12.97;;
48777;SDS011;34578;0.000;0.000;2022-07-18T18:18:55;22.00;;;11.48;;
48777;SDS011;34578;0.000;0.000;2022-07-18T18:23:55;19.13;;;12.00;;
48777;SDS011;34578;0.000;0.000;2022-07-18T18:28:55;25.00;;;13.47;;
48777;SDS011;34578;0.000;0.000;2022-07-18T18:33:56;20.10;;;11.73;;
48777;SDS011;34578;0.000;0.000;2022-07-18T18:38:56;20.20;;;14.20;;
48777;SDS011;34578;0.000;0.000;2022-07-18T18:43:56;13.50;;;9.37;;
48777;SDS011;34578;0.000;0.000;2022-07-18T18:48:57;14.03;;;8.67;;
48777;SDS011;34578;0.000;0.000;2022-07-18T18:53:58;15.48;;;9.45;;
48777;SDS011;34578;0.000;0.000;2022-07-18T18:58:59;22.63;;;12.13;;
48777;SDS011;34578;0.000;0.000;2022-07-18T19:03:59;21.10;;;13.33;;
48777;SDS011;34578;0.000;0.000;2022-07-18T19:08:59;23.87;;;14.00;;
48777;SDS011;34578;0.000;0.000;2022-07-18T19:14:00;24.30;;;13.45;;
48777;SDS011;34578;0.000;0.000;2022-07-18T19:19:01;18.27;;;11.45;;
48777;SDS011;34578;0.000;0.000;2022-07-18T19:24:02;27.65;;;14.20;;
48777;SDS011;34578;0.000;0.000;2022-07-18T19:29:03;16.90;;;10.52;;
48777;SDS011;34578;0.000;0.000;2022-07-18T19:34:04;14.68;;;9.98;;
48777;SDS011;34578;0.000;0.000;2022-07-18T19:39:04;17.03;;;9.77;;
48777;SDS011;34578;0.000;0.000;2022-07-18T19:44:07;15.50;;;11.27;;
48777;SDS011;34578;0.000;0.000;2022-07-18T19:49:08;24.07;;;14.53;;
48777;SDS011;34578;0.000;0.000;2022-07-18T19:54:08;22.17;;;12.32;;
48777;SDS011;34578;0.000;0.000;2022-07-18T19:59:08;17.30;;;11.40;;
48777;SDS011;34578;0.000;0.000;2022-07-18T20:04:09;18.23;;;10.70;;
48777;SDS011;34578;0.000;0.000;2022-07-18T20:09:09;15.10;;;8.63;;
48777;SDS011;34578;0.000;0.000;2022-07-18T20:14:09;15.03;;;8.43;;
48777;SDS011;34578;0.000;0.000;2022-07-18T20:19:10;11.83;;;7.37;;
48777;SDS011;34578;0.000;0.000;2022-07-18T20:24:10;15.00;;;7.90;;
48777;SDS011;34578;0.000;0.000;2022-07-18T20:29:10;10.00;;;7.53;;
48777;SDS011;34578;0.000;0.000;2022-07-18T20:34:11;10.60;;;6.97;;
48777;SDS011;34578;0.000;0.000;2022-07-18T20:39:12;15.35;;;8.93;;
48777;SDS011;34578;0.000;0.000;2022-07-18T20:44:12;13.13;;;9.05;;
48777;SDS011;34578;0.000;0.000;2022-07-18T20:49:12;11.93;;;8.23;;
48777;SDS011;34578;0.000;0.000;2022-07-18T20:54:13;15.23;;;10.10;;
48777;SDS011;34578;0.000;0.000;2022-07-18T20:59:13;13.37;;;9.73;;
48777;SDS011;34578;0.000;0.000;2022-07-18T21:04:14;12.27;;;9.60;;
48777;SDS011;34578;0.000;0.000;2022-07-18T21:09:14;11.80;;;8.47;;
48777;SDS011;34578;0.000;0.000;2022-07-18T21:14:15;10.27;;;7.25;;
48777;SDS011;34578;0.000;0.000;2022-07-18T21:19:34;11.05;;;7.07;;
48777;SDS011;34578;0.000;0.000;2022-07-18T21:24:35;11.30;;;7.00;;
48777;SDS011;34578;0.000;0.000;2022-07-18T21:29:35;9.98;;;7.03;;
48777;SDS011;34578;0.000;0.000;2022-07-18T21:34:38;12.27;;;7.90;;
48777;SDS011;34578;0.000;0.000;2022-07-18T21:39:39;10.98;;;7.32;;
48777;SDS011;34578;0.000;0.000;2022-07-18T21:44:39;12.10;;;7.93;;
48777;SDS011;34578;0.000;0.000;2022-07-18T21:49:40;10.38;;;7.25;;
48777;SDS011;34578;0.000;0.000;2022-07-18T21:54:40;11.57;;;7.53;;
48777;SDS011;34578;0.000;0.000;2022-07-18T21:59:40;9.80;;;7.40;;
48777;SDS011;34578;0.000;0.000;2022-07-18T22:04:41;10.10;;;7.20;;
48777;SDS011;34578;0.000;0.000;2022-07-18T22:09:41;8.75;;;6.82;;
48777;SDS011;34578;0.000;0.000;2022-07-18T22:14:42;10.80;;;7.07;;
48777;SDS011;34578;0.000;0.000;2022-07-18T22:19:42;9.27;;;6.73;;
48777;SDS011;34578;0.000;0.000;2022-07-18T22:24:43;9.83;;;7.33;;
48777;SDS011;34578;0.000;0.000;2022-07-18T22:29:43;11.57;;;7.80;;
48777;SDS011;34578;0.000;0.000;2022-07-18T22:34:43;12.37;;;8.10;;
48777;SDS011;34578;0.000;0.000;2022-07-18T22:39:44;9.83;;;7.67;;
48777;SDS011;34578;0.000;0.000;2022-07-18T22:44:44;8.53;;;6.77;;
48777;SDS011;34578;0.000;0.000;2022-07-18T22:49:44;9.10;;;6.23;;
48777;SDS011;34578;0.000;0.000;2022-07-18T22:54:45;10.07;;;7.00;;
48777;SDS011;34578;0.000;0.000;2022-07-18T22:59:45;10.97;;;6.53;;
48777;SDS011;34578;0.000;0.000;2022-07-18T23:04:45;8.23;;;6.33;;
48777;SDS011;34578;0.000;0.000;2022-07-18T23:09:46;8.50;;;6.07;;
48777;SDS011;34578;0.000;0.000;2022-07-18T23:14:46;8.97;;;5.93;;
48777;SDS011;34578;0.000;0.000;2022-07-18T23:19:46;7.27;;;6.10;;
48777;SDS011;34578;0.000;0.000;2022-07-18T23:24:48;8.20;;;5.60;;
48777;SDS011;34578;0.000;0.000;2022-07-18T23:29:48;7.70;;;5.70;;
48777;SDS011;34578;0.000;0.000;2022-07-18T23:34:49;7.87;;;5.30;;
48777;SDS011;34578;0.000;0.000;2022-07-18T23:39:49;6.53;;;5.65;;
48777;SDS011;34578;0.000;0.000;2022-07-18T23:44:50;8.60;;;5.73;;
48777;SDS011;34578;0.000;0.000;2022-07-18T23:49:51;8.07;;;6.03;;
48777;SDS011;34578;0.000;0.000;2022-07-18T23:54:52;6.60;;;5.47;;
48777;SDS011;34578;0.000;0.000;2022-07-18T23:59:52;6.80;;;5.33;;
